Time;durP1;ratioP1;P1;durP2;ratioP2;P2;SDS_P1;SDS_P2;PMS_P1;PMS_P2;Temp;Humidity;BMP_temperature;BMP_pressure;BME280_temperature;BME280_humidity;BME280_pressure;Samples;Min_cycle;Max_cycle;Signal;HPM_P1;HPM_P2
2021/04/26 00:01:00;;;;;;;3.58;3.12;;;5.20;99.90;;;;;;454508;262;27596;-71
2021/04/26 00:03:01;;;;;;;4.35;3.00;;;5.20;99.90;;;;;;461596;258;27522;-70
2021/04/26 00:05:02;;;;;;;3.83;3.10;;;5.30;99.90;;;;;;454452;262;27599;-70
2021/04/26 00:07:04;;;;;;;4.60;3.47;;;5.20;99.90;;;;;;461539;258;27493;-72
2021/04/26 00:09:05;;;;;;;4.35;3.10;;;5.30;99.90;;;;;;454477;262;28204;-71
2021/04/26 00:11:06;;;;;;;3.90;3.47;;;5.20;99.90;;;;;;461557;258;27493;-71
2021/04/26 00:13:07;;;;;;;6.22;3.95;;;5.20;99.90;;;;;;454487;262;27549;-72
2021/04/26 00:15:09;;;;;;;3.78;3.40;;;5.10;99.90;;;;;;461517;258;27484;-71
2021/04/26 00:17:10;;;;;;;5.75;4.22;;;5.10;99.90;;;;;;454491;262;27597;-72
2021/04/26 00:19:11;;;;;;;5.47;3.70;;;5.00;99.90;;;;;;461589;258;27521;-70
2021/04/26 00:21:12;;;;;;;3.25;3.05;;;5.00;99.90;;;;;;454504;262;28135;-71
2021/04/26 00:23:14;;;;;;;4.37;3.45;;;5.10;99.90;;;;;;461577;258;27920;-70
2021/04/26 00:25:15;;;;;;;4.20;3.28;;;5.10;99.90;;;;;;454495;262;27589;-71
2021/04/26 00:27:16;;;;;;;4.03;3.62;;;5.00;99.90;;;;;;461587;258;27484;-72
2021/04/26 00:29:17;;;;;;;3.62;3.30;;;4.90;99.90;;;;;;454496;262;27553;-70
2021/04/26 00:31:19;;;;;;;4.15;3.60;;;4.90;99.90;;;;;;461543;258;27516;-71
2021/04/26 00:33:20;;;;;;;4.30;3.20;;;4.80;99.90;;;;;;454495;261;27572;-71
2021/04/26 00:35:21;;;;;;;10.32;3.62;;;4.80;99.90;;;;;;461556;258;27489;-71
2021/04/26 00:37:22;;;;;;;7.78;3.70;;;4.80;99.90;;;;;;454411;262;28074;-72
2021/04/26 00:39:24;;;;;;;4.82;4.20;;;4.80;99.90;;;;;;461586;257;27970;-71
2021/04/26 00:41:25;;;;;;;8.38;4.40;;;4.80;99.90;;;;;;454480;262;27602;-71
2021/04/26 00:43:26;;;;;;;9.75;4.37;;;4.70;99.90;;;;;;461573;258;27449;-70
2021/04/26 00:45:27;;;;;;;5.35;4.32;;;4.70;99.90;;;;;;454492;262;27612;-71
2021/04/26 00:47:29;;;;;;;7.82;4.07;;;4.70;99.90;;;;;;461584;258;27826;-72
2021/04/26 00:49:30;;;;;;;20.27;5.05;;;4.80;99.90;;;;;;454501;262;27619;-70
2021/04/26 00:51:31;;;;;;;5.22;3.70;;;4.80;99.90;;;;;;461555;258;27959;-72
2021/04/26 00:53:32;;;;;;;6.55;3.62;;;4.80;99.90;;;;;;454516;262;28003;-70
2021/04/26 00:55:34;;;;;;;10.23;4.15;;;4.70;99.90;;;;;;461553;258;27473;-71
2021/04/26 00:57:35;;;;;;;11.68;4.03;;;4.70;99.90;;;;;;454493;262;27604;-71
2021/04/26 00:59:36;;;;;;;7.50;3.95;;;4.70;99.90;;;;;;461572;258;27457;-70
2021/04/26 01:01:38;;;;;;;4.28;3.87;;;4.70;99.90;;;;;;454505;262;27673;-71
2021/04/26 01:03:39;;;;;;;8.20;4.37;;;4.70;99.90;;;;;;461548;258;27579;-71
2021/04/26 01:05:40;;;;;;;7.47;4.78;;;4.60;99.90;;;;;;454511;262;28155;-71
2021/04/26 01:07:41;;;;;;;9.35;4.30;;;4.60;99.90;;;;;;461574;258;28066;-72
2021/04/26 01:09:43;;;;;;;5.72;4.25;;;4.60;99.90;;;;;;454487;262;27540;-70
2021/04/26 01:11:44;;;;;;;7.45;4.55;;;4.50;99.90;;;;;;461395;258;27571;-71
2021/04/26 01:13:45;;;;;;;6.78;4.53;;;4.50;99.90;;;;;;454500;262;27635;-71
2021/04/26 01:15:46;;;;;;;5.70;3.97;;;4.40;99.90;;;;;;461554;258;27492;-71
2021/04/26 01:17:48;;;;;;;5.72;3.97;;;4.40;99.90;;;;;;454478;262;28005;-71
2021/04/26 01:19:49;;;;;;;7.57;4.43;;;4.30;99.90;;;;;;461545;258;27495;-71
2021/04/26 01:21:50;;;;;;;8.85;4.03;;;4.30;99.90;;;;;;454499;262;28039;-71
2021/04/26 01:23:51;;;;;;;10.63;4.28;;;4.30;99.90;;;;;;461619;258;27989;-71
2021/04/26 01:25:53;;;;;;;9.57;4.20;;;4.20;99.90;;;;;;454471;262;28190;-72
2021/04/26 01:27:54;;;;;;;5.25;4.55;;;4.20;99.90;;;;;;461566;258;27469;-70
2021/04/26 01:29:55;;;;;;;6.07;4.55;;;4.10;99.90;;;;;;454502;262;27541;-71
2021/04/26 01:31:56;;;;;;;4.47;4.03;;;4.10;99.90;;;;;;461576;258;27587;-72
2021/04/26 01:33:58;;;;;;;11.55;4.22;;;4.10;99.90;;;;;;454504;262;27677;-72
2021/04/26 01:35:59;;;;;;;5.82;4.00;;;4.10;99.90;;;;;;461612;258;27489;-71
2021/04/26 01:38:00;;;;;;;11.23;4.75;;;4.00;99.90;;;;;;454529;262;28141;-70
2021/04/26 01:40:02;;;;;;;4.53;3.47;;;4.00;99.90;;;;;;461621;258;27988;-70
2021/04/26 01:42:03;;;;;;;5.95;4.43;;;4.00;99.90;;;;;;454512;262;27618;-72
2021/04/26 01:44:04;;;;;;;8.00;4.18;;;4.00;99.90;;;;;;461575;257;27441;-70
2021/04/26 01:46:05;;;;;;;9.07;4.50;;;4.00;99.90;;;;;;454439;262;27680;-71
2021/04/26 01:48:06;;;;;;;6.70;4.05;;;3.90;99.90;;;;;;461532;257;27564;-71
2021/04/26 01:50:08;;;;;;;7.00;3.95;;;3.90;99.90;;;;;;454473;262;27561;-72
2021/04/26 01:52:09;;;;;;;9.88;4.40;;;3.90;99.90;;;;;;461571;258;27500;-73
2021/04/26 01:54:10;;;;;;;8.02;4.32;;;3.90;99.90;;;;;;454490;262;27540;-70
2021/04/26 01:56:12;;;;;;;6.85;4.30;;;3.90;99.90;;;;;;461561;258;27964;-71
2021/04/26 01:58:13;;;;;;;5.55;3.87;;;3.80;99.90;;;;;;454506;262;28796;-71
2021/04/26 02:00:14;;;;;;;11.75;4.22;;;3.90;99.90;;;;;;461560;258;27920;-72
2021/04/26 02:02:15;;;;;;;5.15;3.95;;;3.80;99.90;;;;;;454508;262;27593;-72
2021/04/26 02:04:18;;;;;;;7.35;4.40;;;3.80;99.90;;;;;;461588;258;27453;-70
2021/04/26 02:06:18;;;;;;;7.65;4.35;;;3.80;99.90;;;;;;454450;262;27597;-71
2021/04/26 02:08:19;;;;;;;6.60;3.70;;;3.80;99.90;;;;;;461569;258;27541;-71
2021/04/26 02:10:20;;;;;;;5.80;4.30;;;3.80;99.90;;;;;;454486;262;27572;-72
2021/04/26 02:12:21;;;;;;;6.28;3.80;;;3.80;99.90;;;;;;461542;258;27568;-71
2021/04/26 02:14:23;;;;;;;4.10;3.70;;;3.80;99.90;;;;;;454457;262;27555;-71
2021/04/26 02:16:24;;;;;;;6.62;4.00;;;3.80;99.90;;;;;;461547;258;27481;-71
2021/04/26 02:18:25;;;;;;;5.85;4.50;;;3.80;99.90;;;;;;454082;262;28663;-72
2021/04/26 02:20:26;;;;;;;4.97;4.18;;;3.70;99.90;;;;;;461469;258;27980;-70
2021/04/26 02:22:28;;;;;;;6.12;4.45;;;3.80;99.90;;;;;;454462;262;28065;-72
2021/04/26 02:24:29;;;;;;;5.90;4.05;;;3.70;99.90;;;;;;461548;258;27541;-71
2021/04/26 02:26:30;;;;;;;6.65;3.70;;;3.70;99.90;;;;;;454487;262;27614;-71
2021/04/26 02:28:31;;;;;;;9.55;5.07;;;3.70;99.90;;;;;;461566;258;27508;-71
2021/04/26 02:30:33;;;;;;;8.45;4.12;;;3.70;99.90;;;;;;454476;262;27569;-71
2021/04/26 02:32:34;;;;;;;8.90;4.35;;;3.70;99.90;;;;;;461549;258;27437;-73
2021/04/26 02:34:35;;;;;;;7.45;3.95;;;3.70;99.90;;;;;;454506;262;27633;-70
2021/04/26 02:36:36;;;;;;;4.05;3.70;;;3.70;99.90;;;;;;461589;258;27495;-71
2021/04/26 02:38:38;;;;;;;8.45;4.90;;;3.80;99.90;;;;;;454482;262;27564;-70
2021/04/26 02:40:39;;;;;;;7.20;3.85;;;3.70;99.90;;;;;;461581;258;28047;-71
2021/04/26 02:42:40;;;;;;;5.20;3.92;;;3.70;99.90;;;;;;454510;262;28179;-71
2021/04/26 02:44:41;;;;;;;9.32;4.57;;;3.70;99.90;;;;;;461597;258;27982;-72
2021/04/26 02:46:43;;;;;;;7.05;4.32;;;3.70;99.90;;;;;;454526;262;27599;-70
2021/04/26 02:48:44;;;;;;;11.60;4.45;;;3.70;99.90;;;;;;461558;258;27457;-71
2021/04/26 02:50:45;;;;;;;8.18;3.97;;;3.70;99.90;;;;;;454476;262;27587;-71
2021/04/26 02:52:47;;;;;;;6.47;4.90;;;3.60;99.90;;;;;;461371;258;27485;-70
2021/04/26 02:54:48;;;;;;;6.43;4.45;;;3.60;99.90;;;;;;454479;262;27556;-71
2021/04/26 02:56:49;;;;;;;9.02;4.18;;;3.60;99.90;;;;;;461558;257;27489;-71
2021/04/26 02:58:50;;;;;;;10.18;3.87;;;3.60;99.90;;;;;;454469;262;27552;-73
2021/04/26 03:00:52;;;;;;;7.20;4.15;;;3.60;99.90;;;;;;461533;257;27987;-71
2021/04/26 03:02:53;;;;;;;5.68;3.90;;;3.50;99.90;;;;;;454460;262;28250;-70
2021/04/26 03:04:54;;;;;;;5.57;4.82;;;3.60;99.90;;;;;;461527;258;27554;-71
2021/04/26 03:06:55;;;;;;;7.95;4.05;;;3.50;99.90;;;;;;454429;262;27599;-70
2021/04/26 03:08:57;;;;;;;5.47;4.40;;;3.60;99.90;;;;;;461533;258;27560;-71
2021/04/26 03:10:58;;;;;;;6.25;4.10;;;3.60;99.90;;;;;;454390;262;27589;-70
2021/04/26 03:12:59;;;;;;;4.78;3.92;;;3.50;99.90;;;;;;461503;258;27597;-71
2021/04/26 03:15:00;;;;;;;4.45;3.62;;;3.50;99.90;;;;;;454485;262;27653;-71
2021/04/26 03:17:02;;;;;;;4.57;4.18;;;3.40;99.90;;;;;;461546;258;27499;-71
2021/04/26 03:19:03;;;;;;;11.80;4.72;;;3.40;99.90;;;;;;454504;262;27562;-71
2021/04/26 03:21:04;;;;;;;8.38;4.35;;;3.40;99.90;;;;;;461570;258;28052;-70
2021/04/26 03:23:05;;;;;;;6.40;4.20;;;3.40;99.90;;;;;;454427;262;28785;-71
2021/04/26 03:25:07;;;;;;;5.60;4.10;;;3.40;99.90;;;;;;461224;258;28643;-70
2021/04/26 03:27:08;;;;;;;6.45;4.30;;;3.40;99.90;;;;;;454412;262;27619;-71
2021/04/26 03:29:09;;;;;;;8.10;4.80;;;3.30;99.90;;;;;;461512;256;27481;-70
2021/04/26 03:31:10;;;;;;;6.45;4.00;;;3.30;99.90;;;;;;454461;262;27590;-71
2021/04/26 03:33:12;;;;;;;10.93;4.65;;;3.30;99.90;;;;;;461563;258;27518;-71
2021/04/26 03:35:13;;;;;;;8.75;4.70;;;3.30;99.90;;;;;;454478;262;27667;-71
2021/04/26 03:37:14;;;;;;;7.28;4.43;;;3.20;99.90;;;;;;461549;257;27480;-71
2021/04/26 03:39:16;;;;;;;7.70;4.15;;;3.20;99.90;;;;;;454470;262;27547;-71
2021/04/26 03:41:17;;;;;;;9.38;4.20;;;3.20;99.90;;;;;;461537;258;27484;-71
2021/04/26 03:43:18;;;;;;;6.53;4.00;;;3.20;99.90;;;;;;454470;262;28042;-71
2021/04/26 03:45:19;;;;;;;7.62;4.43;;;3.20;99.90;;;;;;461509;258;27947;-71
2021/04/26 03:47:20;;;;;;;4.18;3.67;;;3.20;99.90;;;;;;454486;262;28194;-72
2021/04/26 03:49:22;;;;;;;8.23;4.12;;;3.20;99.90;;;;;;461570;258;27433;-72
2021/04/26 03:51:23;;;;;;;6.97;4.37;;;3.20;99.90;;;;;;454501;262;27595;-71
2021/04/26 03:53:24;;;;;;;6.05;3.20;;;3.20;99.90;;;;;;461577;258;27441;-71
2021/04/26 03:55:25;;;;;;;8.77;4.50;;;3.20;99.90;;;;;;454470;262;27670;-71
2021/04/26 03:57:27;;;;;;;9.48;5.22;;;3.30;99.90;;;;;;461304;258;27581;-72
2021/04/26 03:59:28;;;;;;;9.90;4.43;;;3.20;99.90;;;;;;454087;262;27575;-72
2021/04/26 04:01:29;;;;;;;6.07;4.00;;;3.10;99.90;;;;;;461519;258;27607;-71
2021/04/26 04:03:30;;;;;;;3.67;3.37;;;3.10;99.90;;;;;;454515;262;27568;-71
2021/04/26 04:05:32;;;;;;;6.40;3.62;;;3.10;99.90;;;;;;461567;258;28029;-71
2021/04/26 04:07:33;;;;;;;6.72;3.65;;;3.10;99.90;;;;;;454481;262;28171;-72
2021/04/26 04:09:34;;;;;;;7.03;4.10;;;3.20;99.90;;;;;;461577;258;29070;-71
2021/04/26 04:11:35;;;;;;;5.45;4.03;;;3.10;99.90;;;;;;454493;262;28082;-71
2021/04/26 04:13:37;;;;;;;5.20;3.70;;;3.10;99.90;;;;;;461595;258;27522;-71
2021/04/26 04:15:38;;;;;;;7.07;4.68;;;3.10;99.90;;;;;;454506;262;27675;-71
2021/04/26 04:17:39;;;;;;;5.47;3.90;;;3.10;99.90;;;;;;461556;258;27591;-71
2021/04/26 04:19:41;;;;;;;4.65;3.60;;;3.10;99.90;;;;;;454487;262;27560;-71
2021/04/26 04:21:42;;;;;;;7.78;4.30;;;3.10;99.90;;;;;;461524;256;27531;-72
2021/04/26 04:23:43;;;;;;;4.78;3.95;;;3.10;99.90;;;;;;454520;262;27660;-71
2021/04/26 04:25:44;;;;;;;8.00;4.60;;;3.10;99.90;;;;;;461592;258;27509;-72
2021/04/26 04:27:45;;;;;;;12.48;5.37;;;3.10;99.90;;;;;;454545;262;27691;-71
2021/04/26 04:29:47;;;;;;;7.50;3.95;;;3.10;99.90;;;;;;461578;257;27485;-71
2021/04/26 04:31:48;;;;;;;10.07;4.70;;;3.00;99.90;;;;;;454402;262;28093;-71
2021/04/26 04:33:49;;;;;;;5.45;4.40;;;3.10;99.90;;;;;;461571;258;27968;-72
2021/04/26 04:35:50;;;;;;;7.05;4.30;;;3.00;99.90;;;;;;454469;262;28026;-72
2021/04/26 04:37:52;;;;;;;7.22;4.70;;;2.90;99.90;;;;;;461557;256;27477;-70
2021/04/26 04:39:53;;;;;;;3.92;3.62;;;2.80;99.90;;;;;;454471;262;27598;-72
2021/04/26 04:41:54;;;;;;;7.35;3.72;;;2.80;99.90;;;;;;461565;258;27590;-72
2021/04/26 04:43:55;;;;;;;6.57;3.70;;;2.80;99.90;;;;;;454473;262;27537;-71
2021/04/26 04:45:57;;;;;;;5.90;3.80;;;2.80;99.90;;;;;;461531;257;27596;-72
2021/04/26 04:47:58;;;;;;;5.05;4.15;;;2.80;99.90;;;;;;454500;262;27553;-71
2021/04/26 04:49:59;;;;;;;9.98;4.40;;;2.80;99.90;;;;;;461564;258;27564;-71
2021/04/26 04:52:00;;;;;;;14.38;4.62;;;2.80;99.90;;;;;;454496;262;27666;-72
2021/04/26 04:54:02;;;;;;;7.47;4.57;;;2.90;99.90;;;;;;461569;258;27949;-71
2021/04/26 04:56:03;;;;;;;8.13;4.50;;;2.90;99.90;;;;;;454490;262;28058;-72
2021/04/26 04:58:04;;;;;;;4.87;3.97;;;2.90;99.90;;;;;;461639;258;27994;-71
2021/04/26 05:00:05;;;;;;;9.35;4.45;;;2.90;99.90;;;;;;454480;262;28095;-71
2021/04/26 05:02:07;;;;;;;6.75;4.05;;;3.00;99.90;;;;;;461618;258;27561;-73
2021/04/26 05:04:08;;;;;;;5.78;4.53;;;3.00;99.90;;;;;;454256;260;27572;-71
2021/04/26 05:06:09;;;;;;;10.57;5.03;;;3.00;99.90;;;;;;461204;258;27497;-71
2021/04/26 05:08:10;;;;;;;12.68;5.15;;;3.00;99.90;;;;;;454385;262;27572;-72
2021/04/26 05:10:12;;;;;;;7.72;4.78;;;3.00;99.90;;;;;;461602;258;27584;-71
2021/04/26 05:12:14;;;;;;;8.50;4.93;;;3.00;99.90;;;;;;454519;262;27947;-72
2021/04/26 05:14:14;;;;;;;10.45;5.20;;;3.10;99.90;;;;;;461461;258;27449;-71
2021/04/26 05:16:15;;;;;;;4.82;4.15;;;3.10;99.90;;;;;;454490;262;27599;-71
2021/04/26 05:18:17;;;;;;;7.20;5.00;;;3.20;99.90;;;;;;461557;258;28009;-71
2021/04/26 05:20:18;;;;;;;7.53;4.55;;;3.20;99.90;;;;;;454451;260;28086;-71
2021/04/26 05:22:19;;;;;;;5.80;4.25;;;3.30;99.90;;;;;;461532;258;27964;-74
2021/04/26 05:24:20;;;;;;;4.53;3.97;;;3.30;99.90;;;;;;454445;262;27623;-71
2021/04/26 05:26:22;;;;;;;7.70;4.78;;;3.30;99.90;;;;;;461559;258;27584;-71
2021/04/26 05:28:23;;;;;;;8.98;4.32;;;3.40;99.90;;;;;;454503;262;27553;-71
2021/04/26 05:30:24;;;;;;;6.30;4.03;;;3.40;99.90;;;;;;461563;258;27496;-71
2021/04/26 05:32:25;;;;;;;7.12;3.95;;;3.50;99.90;;;;;;454510;262;27609;-72
2021/04/26 05:34:27;;;;;;;6.80;4.03;;;3.50;99.90;;;;;;461557;258;27433;-71
2021/04/26 05:36:28;;;;;;;10.93;3.97;;;3.50;99.90;;;;;;454499;262;27600;-70
2021/04/26 05:38:29;;;;;;;6.57;4.70;;;3.60;99.90;;;;;;461581;258;27885;-70
2021/04/26 05:40:30;;;;;;;5.72;3.80;;;3.60;99.90;;;;;;454518;262;28029;-70
2021/04/26 05:42:32;;;;;;;6.82;4.30;;;3.70;99.90;;;;;;461519;258;27971;-72
2021/04/26 05:44:33;;;;;;;6.85;3.83;;;3.70;99.90;;;;;;454476;262;28100;-71
2021/04/26 05:46:34;;;;;;;5.90;4.10;;;3.80;99.90;;;;;;461550;258;27477;-72
2021/04/26 05:48:35;;;;;;;9.43;4.65;;;3.80;99.90;;;;;;454492;262;27552;-71
2021/04/26 05:50:37;;;;;;;6.65;4.35;;;3.80;99.90;;;;;;461577;258;27573;-74
2021/04/26 05:52:38;;;;;;;6.05;3.97;;;3.90;99.90;;;;;;454487;262;27594;-71
2021/04/26 05:54:39;;;;;;;5.25;4.10;;;3.90;99.90;;;;;;461567;258;27492;-72
2021/04/26 05:56:40;;;;;;;6.10;3.95;;;4.00;99.90;;;;;;454508;262;27672;-71
2021/04/26 05:58:42;;;;;;;8.32;4.55;;;4.00;99.90;;;;;;461458;257;27947;-70
2021/04/26 06:00:43;;;;;;;5.20;4.05;;;4.00;99.90;;;;;;454492;262;28181;-71
2021/04/26 06:02:44;;;;;;;7.53;4.50;;;4.10;99.90;;;;;;461587;258;27512;-72
2021/04/26 06:04:45;;;;;;;7.03;4.07;;;4.10;99.90;;;;;;454477;262;27549;-70
2021/04/26 06:06:47;;;;;;;10.25;3.87;;;4.10;99.90;;;;;;461570;258;27481;-72
2021/04/26 06:08:48;;;;;;;4.80;3.62;;;4.20;99.90;;;;;;454473;262;27549;-71
2021/04/26 06:10:49;;;;;;;6.78;3.75;;;4.20;99.90;;;;;;461566;258;27504;-71
2021/04/26 06:12:51;;;;;;;6.65;4.50;;;4.30;99.90;;;;;;454512;262;27584;-75
2021/04/26 06:14:52;;;;;;;7.68;4.12;;;4.40;99.90;;;;;;461620;258;27465;-70
2021/04/26 06:16:53;;;;;;;7.07;4.10;;;4.50;99.90;;;;;;454528;262;28069;-72
2021/04/26 06:18:54;;;;;;;5.07;3.97;;;4.50;99.90;;;;;;461505;258;28015;-71
2021/04/26 06:20:56;;;;;;;7.65;3.87;;;4.60;99.90;;;;;;454505;262;27581;-72
2021/04/26 06:22:57;;;;;;;5.10;4.60;;;4.60;99.90;;;;;;461552;258;27473;-71
2021/04/26 06:24:58;;;;;;;6.87;4.47;;;4.70;99.90;;;;;;454499;262;27555;-71
2021/04/26 06:26:59;;;;;;;7.93;4.30;;;4.70;99.90;;;;;;461608;258;27588;-72
2021/04/26 06:29:01;;;;;;;11.85;4.18;;;4.70;99.90;;;;;;454499;262;27568;-71
2021/04/26 06:31:02;;;;;;;8.52;3.87;;;4.80;99.90;;;;;;461588;257;28008;-70
2021/04/26 06:33:03;;;;;;;7.55;3.90;;;5.00;99.90;;;;;;454533;262;28945;-71
2021/04/26 06:35:04;;;;;;;11.48;4.10;;;5.00;99.90;;;;;;461565;258;28000;-71
2021/04/26 06:37:06;;;;;;;7.78;4.00;;;5.10;99.90;;;;;;454504;262;27654;-72
2021/04/26 06:39:07;;;;;;;9.82;4.12;;;5.20;99.90;;;;;;461590;258;27456;-71
2021/04/26 06:41:08;;;;;;;6.87;3.92;;;5.30;99.90;;;;;;454512;262;27661;-72
2021/04/26 06:43:09;;;;;;;5.80;3.80;;;5.40;99.90;;;;;;461615;258;27959;-71
2021/04/26 06:45:11;;;;;;;4.78;3.50;;;5.50;99.90;;;;;;454512;262;28011;-69
2021/04/26 06:47:12;;;;;;;6.68;4.37;;;5.50;99.90;;;;;;461579;258;28068;-72
2021/04/26 06:49:15;;;;;;;6.07;4.15;;;5.60;99.90;;;;;;454535;262;27633;-72
2021/04/26 06:51:14;;;;;;;8.57;3.95;;;5.70;99.90;;;;;;461501;258;27565;-71
2021/04/26 06:53:16;;;;;;;6.78;4.35;;;5.70;99.90;;;;;;454488;262;27598;-72
2021/04/26 06:55:17;;;;;;;6.40;4.20;;;5.80;99.90;;;;;;461570;258;27441;-71
2021/04/26 06:57:18;;;;;;;5.87;3.75;;;5.80;99.90;;;;;;454495;262;27599;-72
2021/04/26 06:59:19;;;;;;;8.45;4.20;;;5.90;99.90;;;;;;461574;258;28056;-70
2021/04/26 07:01:21;;;;;;;8.27;3.83;;;6.00;99.90;;;;;;454497;262;28075;-72
2021/04/26 07:03:22;;;;;;;7.07;4.43;;;6.10;99.90;;;;;;461570;258;27470;-69
2021/04/26 07:05:23;;;;;;;5.10;3.70;;;6.10;99.90;;;;;;454472;262;28952;-72
2021/04/26 07:07:24;;;;;;;11.17;4.30;;;6.20;99.90;;;;;;461564;258;28859;-71
2021/04/26 07:09:26;;;;;;;9.23;4.10;;;6.30;99.90;;;;;;454515;262;28935;-71
2021/04/26 07:11:27;;;;;;;5.10;3.70;;;6.40;99.90;;;;;;461597;257;27741;-71
2021/04/26 07:13:28;;;;;;;9.80;4.50;;;6.50;99.90;;;;;;454510;262;28063;-71
2021/04/26 07:15:29;;;;;;;11.53;4.53;;;6.50;99.90;;;;;;461589;258;28066;-73
2021/04/26 07:17:31;;;;;;;7.70;4.40;;;6.50;99.90;;;;;;454522;262;27957;-71
2021/04/26 07:19:32;;;;;;;11.70;4.33;;;6.50;99.90;;;;;;461588;258;28595;-71
2021/04/26 07:21:33;;;;;;;5.70;4.33;;;6.60;99.90;;;;;;454520;262;28641;-71
2021/04/26 07:23:34;;;;;;;5.30;4.30;;;6.70;99.90;;;;;;461610;258;29266;-72
2021/04/26 07:25:36;;;;;;;9.00;4.00;;;6.70;99.90;;;;;;454477;262;28420;-72
2021/04/26 07:27:37;;;;;;;6.17;3.70;;;6.60;99.90;;;;;;461595;258;28572;-71
2021/04/26 07:29:38;;;;;;;6.57;4.07;;;6.70;99.90;;;;;;454502;262;28584;-71
2021/04/26 07:31:39;;;;;;;9.50;3.90;;;6.80;99.90;;;;;;461608;258;27568;-72
2021/04/26 07:33:41;;;;;;;6.13;3.93;;;6.90;99.90;;;;;;454538;262;27918;-70
2021/04/26 07:35:42;;;;;;;6.50;4.23;;;6.80;99.90;;;;;;461556;258;27582;-72
2021/04/26 07:37:43;;;;;;;7.80;3.93;;;6.80;99.90;;;;;;454519;262;27696;-71
2021/04/26 07:39:44;;;;;;;8.33;4.77;;;7.00;99.90;;;;;;461547;258;27922;-71
2021/04/26 07:41:46;;;;;;;5.90;3.77;;;7.10;99.90;;;;;;454508;262;28203;-71
2021/04/26 07:43:47;;;;;;;6.93;4.20;;;7.10;99.90;;;;;;461567;257;27716;-70
2021/04/26 07:45:48;;;;;;;6.97;4.83;;;7.20;99.90;;;;;;454472;262;28088;-70
2021/04/26 07:47:50;;;;;;;7.07;3.83;;;7.30;99.90;;;;;;461567;258;28343;-71
2021/04/26 07:49:51;;;;;;;7.33;3.80;;;7.40;99.90;;;;;;454507;262;28028;-71
2021/04/26 07:51:52;;;;;;;6.17;4.00;;;7.40;99.90;;;;;;461564;258;27721;-71
2021/04/26 07:53:53;;;;;;;10.80;4.00;;;7.40;99.90;;;;;;454493;262;28117;-71
2021/04/26 07:55:55;;;;;;;13.13;4.70;;;7.50;99.90;;;;;;461561;258;28518;-72
2021/04/26 07:57:56;;;;;;;6.40;3.77;;;7.60;99.90;;;;;;454492;262;28518;-71
2021/04/26 07:59:57;;;;;;;4.73;4.13;;;7.70;99.90;;;;;;461550;258;28439;-72
2021/04/26 08:01:58;;;;;;;6.60;4.27;;;7.90;99.90;;;;;;454497;262;28801;-72
2021/04/26 08:03:59;;;;;;;4.97;3.70;;;7.70;99.90;;;;;;461594;258;28485;-71
2021/04/26 08:06:01;;;;;;;6.63;3.97;;;7.80;99.90;;;;;;454520;262;27858;-70
2021/04/26 08:08:02;;;;;;;5.27;3.93;;;7.90;99.90;;;;;;461601;258;27992;-70
2021/04/26 08:10:03;;;;;;;6.20;3.80;;;7.90;99.90;;;;;;454535;262;28166;-71
2021/04/26 08:12:04;;;;;;;4.90;4.07;;;8.00;99.90;;;;;;461621;258;27965;-72
2021/04/26 08:14:06;;;;;;;5.63;3.77;;;8.00;99.90;;;;;;454528;262;27793;-71
2021/04/26 08:16:07;;;;;;;4.70;3.73;;;8.00;99.90;;;;;;461568;258;27801;-70
2021/04/26 08:18:08;;;;;;;6.07;3.83;;;8.10;99.90;;;;;;454493;262;27658;-71
2021/04/26 08:20:09;;;;;;;6.07;3.73;;;8.20;99.90;;;;;;461538;258;28002;-71
2021/04/26 08:22:11;;;;;;;8.80;4.37;;;8.20;99.90;;;;;;454491;262;28078;-71
2021/04/26 08:24:12;;;;;;;5.13;4.10;;;8.30;99.90;;;;;;461571;258;28071;-71
2021/04/26 08:26:13;;;;;;;4.40;3.60;;;8.40;99.90;;;;;;454477;262;27922;-70
2021/04/26 08:28:16;;;;;;;7.57;4.27;;;8.30;99.90;;;;;;461545;258;28030;-70
2021/04/26 08:30:16;;;;;;;7.03;4.10;;;8.40;99.80;;;;;;454369;262;28147;-71
2021/04/26 08:32:17;;;;;;;4.93;4.00;;;8.50;99.80;;;;;;461570;258;28236;-71
2021/04/26 08:34:18;;;;;;;8.87;3.90;;;8.40;99.60;;;;;;454521;262;29205;-71
2021/04/26 08:36:19;;;;;;;5.60;3.77;;;8.50;99.90;;;;;;461414;258;28623;-71
2021/04/26 08:38:21;;;;;;;10.57;4.73;;;8.60;99.30;;;;;;454357;262;28484;-71
2021/04/26 08:40:22;;;;;;;12.03;5.20;;;8.70;99.00;;;;;;461591;258;28424;-71
2021/04/26 08:42:23;;;;;;;5.57;4.07;;;8.70;98.80;;;;;;454541;262;27701;-70
2021/04/26 08:44:24;;;;;;;6.20;4.60;;;8.80;98.90;;;;;;461573;258;27939;-71
2021/04/26 08:46:26;;;;;;;6.70;4.10;;;8.90;98.90;;;;;;454529;262;28081;-71
2021/04/26 08:48:28;;;;;;;5.50;4.70;;;8.90;98.70;;;;;;461564;258;27914;-70
2021/04/26 08:50:28;;;;;;;10.80;4.53;;;9.10;99.40;;;;;;454463;262;28064;-71
2021/04/26 08:52:29;;;;;;;6.67;4.13;;;9.30;98.80;;;;;;461585;256;28509;-71
2021/04/26 08:54:32;;;;;;;6.63;3.80;;;9.00;98.10;;;;;;454556;262;28015;-71
2021/04/26 08:56:32;;;;;;;8.57;4.50;;;9.00;98.60;;;;;;461590;258;28041;-71
2021/04/26 08:58:33;;;;;;;5.80;4.27;;;9.00;97.70;;;;;;454536;262;27954;-71
2021/04/26 09:00:34;;;;;;;9.40;4.73;;;9.30;97.70;;;;;;461587;257;28042;-71
2021/04/26 09:02:36;;;;;;;4.30;3.80;;;9.20;97.50;;;;;;454512;262;28137;-71
2021/04/26 09:04:37;;;;;;;6.13;4.40;;;9.30;98.10;;;;;;461592;258;27897;-71
2021/04/26 09:06:38;;;;;;;6.10;4.47;;;9.40;97.40;;;;;;454547;262;28678;-72
2021/04/26 09:08:39;;;;;;;6.47;4.17;;;9.40;97.80;;;;;;461592;258;28477;-71
2021/04/26 09:10:41;;;;;;;6.10;4.43;;;9.50;97.90;;;;;;454428;262;28519;-72
2021/04/26 09:12:42;;;;;;;7.10;3.83;;;9.70;97.10;;;;;;461548;258;29146;-71
2021/04/26 09:14:43;;;;;;;5.47;3.83;;;9.70;97.40;;;;;;454509;262;28287;-70
2021/04/26 09:16:44;;;;;;;8.00;4.60;;;9.70;97.00;;;;;;461567;258;27610;-72
2021/04/26 09:18:46;;;;;;;10.07;4.93;;;9.80;96.80;;;;;;454493;262;28041;-71
2021/04/26 09:20:47;;;;;;;6.07;4.23;;;9.60;97.10;;;;;;460954;258;28278;-73
2021/04/26 09:22:48;;;;;;;5.23;4.20;;;9.80;96.10;;;;;;454495;262;27921;-71
2021/04/26 09:24:49;;;;;;;6.97;4.43;;;10.00;97.00;;;;;;461584;258;28285;-71
2021/04/26 09:26:51;;;;;;;5.13;3.80;;;9.90;95.30;;;;;;454518;262;27780;-72
2021/04/26 09:28:52;;;;;;;7.10;3.97;;;9.80;96.30;;;;;;461584;258;27938;-70
2021/04/26 09:30:53;;;;;;;11.30;5.70;;;9.90;95.20;;;;;;454529;262;28449;-70
2021/04/26 09:32:54;;;;;;;11.53;5.03;;;10.00;94.70;;;;;;461552;258;27849;-71
2021/04/26 09:34:56;;;;;;;10.40;4.97;;;9.90;94.80;;;;;;454519;262;28026;-71
2021/04/26 09:36:57;;;;;;;7.80;4.30;;;9.90;94.70;;;;;;461618;258;27976;-71
2021/04/26 09:39:04;;;;;;;7.90;3.93;;;10.00;94.10;;;;;;454503;262;28470;-71
2021/04/26 09:40:59;;;;;;;5.93;4.27;;;10.00;95.00;;;;;;453258;262;28558;-71
2021/04/26 09:43:02;;;;;;;9.87;4.37;;;10.40;94.60;;;;;;454507;262;28586;-71
2021/04/26 09:45:02;;;;;;;7.47;4.70;;;10.30;93.00;;;;;;461490;258;27961;-71
2021/04/26 09:47:03;;;;;;;6.27;4.27;;;10.40;93.30;;;;;;454510;262;28257;-71
2021/04/26 09:49:04;;;;;;;5.77;3.80;;;10.20;92.90;;;;;;461577;257;28113;-72
2021/04/26 09:51:06;;;;;;;7.90;4.57;;;10.40;94.30;;;;;;454486;262;28182;-71
2021/04/26 09:53:07;;;;;;;6.63;4.40;;;10.30;93.10;;;;;;461602;258;28031;-71
2021/04/26 09:55:08;;;;;;;7.47;4.07;;;10.30;93.50;;;;;;454522;262;28053;-71
2021/04/26 09:57:09;;;;;;;7.53;4.50;;;10.30;92.90;;;;;;461624;257;28103;-71
2021/04/26 09:59:11;;;;;;;7.60;4.07;;;10.30;93.70;;;;;;454572;262;28328;-71
2021/04/26 10:01:12;;;;;;;5.70;4.40;;;10.60;93.50;;;;;;461618;257;28036;-71
2021/04/26 10:03:13;;;;;;;6.23;3.83;;;10.40;91.90;;;;;;454562;262;28811;-71
2021/04/26 10:05:14;;;;;;;8.13;4.57;;;10.30;93.50;;;;;;461496;258;28499;-71
2021/04/26 10:07:16;;;;;;;9.33;4.40;;;10.80;93.10;;;;;;454524;262;28586;-73
2021/04/26 10:09:17;;;;;;;5.47;4.30;;;10.70;92.10;;;;;;461580;258;28133;-72
2021/04/26 10:11:18;;;;;;;6.40;4.60;;;10.70;92.10;;;;;;454539;262;28264;-72
2021/04/26 10:13:22;;;;;;;5.33;3.97;;;10.70;92.10;;;;;;461604;258;28132;-71
2021/04/26 10:15:21;;;;;;;6.27;4.30;;;10.90;92.40;;;;;;461437;258;28161;-72
2021/04/26 10:17:22;;;;;;;10.50;3.93;;;10.80;91.70;;;;;;454572;262;28569;-72
2021/04/26 10:19:23;;;;;;;6.00;3.87;;;10.80;90.80;;;;;;461594;258;28199;-71
2021/04/26 10:21:25;;;;;;;8.83;4.57;;;10.90;91.90;;;;;;454527;262;28369;-71
2021/04/26 10:23:26;;;;;;;4.93;4.20;;;10.90;90.50;;;;;;461604;258;28579;-71
2021/04/26 10:25:27;;;;;;;6.47;4.30;;;10.80;90.30;;;;;;454497;262;29147;-72
2021/04/26 10:27:28;;;;;;;7.00;4.53;;;10.70;89.70;;;;;;461551;258;29093;-71
2021/04/26 10:29:29;;;;;;;7.97;4.40;;;10.80;90.30;;;;;;454510;262;28852;-71
2021/04/26 10:31:31;;;;;;;5.37;4.57;;;10.90;89.40;;;;;;461570;258;28794;-71
2021/04/26 10:33:32;;;;;;;7.10;3.97;;;10.80;90.70;;;;;;454518;262;28162;-71
2021/04/26 10:35:33;;;;;;;3.80;3.10;;;11.10;89.70;;;;;;461578;258;28307;-71
2021/04/26 10:37:34;;;;;;;6.37;3.80;;;11.30;89.50;;;;;;454468;262;28310;-71